Cedar Hill, New Mexico
Current Conditions -  °F | °C
As of 5:53 PM on Sunday 21 Dec 2014 (Local Time) from KFMN Reporting Station
Scattered Clouds Scattered Clouds  
Wind Chill: 33°   Ceiling: Unl
Heat Index: 38°   Visibility: 10mi
Dew Point: 30°   Wind: 6mph
Humidity: 73%   Direction: 210°SSW
Pressure: 29.96"   Gusts: NA
Location:  36.928°N, 107.996°W
Report Text: KFMN 220053Z 21005KT 10SM SCT070 03/M01 A2996 RMK AO2 SLP160 T00331011
Loading
Personal Weather Stations






























Interactive Weather Map New forecast layout! Learn more

10-Day Weather Forecast

Advertisements
Track Severe Weather on mobile